Weather at Balen-Keiheuvel Airfield

Public forecast

Using degrees Celsius for public forecast. Weather courtesy of forecast.io.

Closest aviation weather report (METAR) to Balen-Keiheuvel Airfield

Closest report is Kleine Brogel Air Base, 9.4 nm (17.4 km) E.

2024/05/25 16:25 (retrieved 20 minutes ago)

EBBL 251625Z AUTO 27005KT 9999 FEW034/// 19/11 Q1016 BLU

Closest aviation forecast (TAF) to Balen-Keiheuvel Airfield

Forecast is more than 12 hours old.

Closest forecast is Kleine Brogel Air Base, 9.4 nm (17.4 km) E.

2024/05/23 19:12 (retrieved 2 days ago)

TAF EBBL 231541Z 2319/2407 28004KT 9999 SCT030 TEMPO 2319/2407 VRB03KT TEMPO 2319/2321 6000 -SHRA SCT020TCU BECMG 2320/2322 5000 BR TEMPO 2323/2405 2000 BR PROB30 TEMPO 2400/2405 1000 BR